sensor_id;sensor_type;location;lat;lon;timestamp;pressure;altitude;pressure_sealevel;temperature;humidity
46095;BME280;31832;50.746;-2.716;2024-03-08T00:02:05;-15932.75;;;1.22;100.00
46095;BME280;31832;50.746;-2.716;2024-03-08T00:04:30;-15934.29;;;1.54;100.00
46095;BME280;31832;50.746;-2.716;2024-03-08T00:06:55;-15933.36;;;1.49;100.00
46095;BME280;31832;50.746;-2.716;2024-03-08T00:11:46;-15932.29;;;1.20;100.00
46095;BME280;31832;50.746;-2.716;2024-03-08T00:14:12;-15929.53;;;1.30;100.00
46095;BME280;31832;50.746;-2.716;2024-03-08T00:16:37;-15930.07;;;1.33;100.00
46095;BME280;31832;50.746;-2.716;2024-03-08T00:19:02;-15943.40;;;1.77;100.00
46095;BME280;31832;50.746;-2.716;2024-03-08T00:21:27;-15942.71;;;1.73;100.00
46095;BME280;31832;50.746;-2.716;2024-03-08T00:23:53;-15939.31;;;1.56;100.00
46095;BME280;31832;50.746;-2.716;2024-03-08T00:26:18;-15941.67;;;1.68;100.00
46095;BME280;31832;50.746;-2.716;2024-03-08T00:28:43;-15931.51;;;1.16;100.00
46095;BME280;31832;50.746;-2.716;2024-03-08T00:31:08;-15932.60;;;1.22;100.00
46095;BME280;31832;50.746;-2.716;2024-03-08T00:33:33;-15935.35;;;1.59;100.00
46095;BME280;31832;50.746;-2.716;2024-03-08T00:35:59;-15926.39;;;1.38;100.00
46095;BME280;31832;50.746;-2.716;2024-03-08T00:38:24;-15922.24;;;1.16;100.00
46095;BME280;31832;50.746;-2.716;2024-03-08T00:40:50;-15937.39;;;1.70;100.00
46095;BME280;31832;50.746;-2.716;2024-03-08T00:43:15;-15930.97;;;1.61;100.00
46095;BME280;31832;50.746;-2.716;2024-03-08T00:45:40;-15945.10;;;1.61;100.00
46095;BME280;31832;50.746;-2.716;2024-03-08T00:48:06;-15950.36;;;1.88;100.00
46095;BME280;31832;50.746;-2.716;2024-03-08T00:50:31;-15936.15;;;1.40;100.00
46095;BME280;31832;50.746;-2.716;2024-03-08T00:52:57;-15953.35;;;1.80;100.00
46095;BME280;31832;50.746;-2.716;2024-03-08T00:55:23;-15946.33;;;1.68;100.00
46095;BME280;31832;50.746;-2.716;2024-03-08T00:57:47;-15935.77;;;1.14;100.00
46095;BME280;31832;50.746;-2.716;2024-03-08T01:00:13;-15934.59;;;1.56;100.00
46095;BME280;31832;50.746;-2.716;2024-03-08T01:02:38;-15952.40;;;1.99;100.00
46095;BME280;31832;50.746;-2.716;2024-03-08T01:05:04;-15954.09;;;2.07;100.00
46095;BME280;31832;50.746;-2.716;2024-03-08T01:07:29;-15940.24;;;1.61;100.00
46095;BME280;31832;50.746;-2.716;2024-03-08T01:09:54;-15938.64;;;1.52;100.00
46095;BME280;31832;50.746;-2.716;2024-03-08T01:12:20;-15930.62;;;1.35;100.00
46095;BME280;31832;50.746;-2.716;2024-03-08T01:14:46;-15937.73;;;1.48;100.00
46095;BME280;31832;50.746;-2.716;2024-03-08T01:17:11;-15926.55;;;1.15;100.00
46095;BME280;31832;50.746;-2.716;2024-03-08T01:19:36;-15934.75;;;1.32;100.00
46095;BME280;31832;50.746;-2.716;2024-03-08T01:22:02;-15936.12;;;1.63;100.00
46095;BME280;31832;50.746;-2.716;2024-03-08T01:24:28;-15926.26;;;0.89;100.00
46095;BME280;31832;50.746;-2.716;2024-03-08T01:26:53;-15924.46;;;1.28;100.00
46095;BME280;31832;50.746;-2.716;2024-03-08T01:29:18;-15918.08;;;0.71;100.00
46095;BME280;31832;50.746;-2.716;2024-03-08T01:31:44;-15926.61;;;1.15;100.00
46095;BME280;31832;50.746;-2.716;2024-03-08T01:34:10;-15929.74;;;1.07;100.00
46095;BME280;31832;50.746;-2.716;2024-03-08T01:36:35;-15921.78;;;0.66;100.00
46095;BME280;31832;50.746;-2.716;2024-03-08T01:39:01;-15915.79;;;0.83;100.00
46095;BME280;31832;50.746;-2.716;2024-03-08T01:41:26;-15922.45;;;1.17;100.00
46095;BME280;31832;50.746;-2.716;2024-03-08T01:43:52;-15920.16;;;0.82;100.00
46095;BME280;31832;50.746;-2.716;2024-03-08T01:46:19;-15928.35;;;1.48;100.00
46095;BME280;31832;50.746;-2.716;2024-03-08T01:48:43;-15920.24;;;1.06;100.00
46095;BME280;31832;50.746;-2.716;2024-03-08T01:51:08;-15913.68;;;0.73;100.00
46095;BME280;31832;50.746;-2.716;2024-03-08T01:53:33;-15921.44;;;1.12;100.00
46095;BME280;31832;50.746;-2.716;2024-03-08T01:55:59;-15930.89;;;1.37;100.00
46095;BME280;31832;50.746;-2.716;2024-03-08T01:58:25;-15921.99;;;0.67;100.00
46095;BME280;31832;50.746;-2.716;2024-03-08T02:03:15;-15919.58;;;1.03;100.00
46095;BME280;31832;50.746;-2.716;2024-03-08T02:05:41;-15931.71;;;1.41;100.00
46095;BME280;31832;50.746;-2.716;2024-03-08T02:08:06;-15938.59;;;1.04;100.00
46095;BME280;31832;50.746;-2.716;2024-03-08T02:10:30;-15926.42;;;1.14;100.00
46095;BME280;31832;50.746;-2.716;2024-03-08T02:15:21;-15942.29;;;1.71;100.00
46095;BME280;31832;50.746;-2.716;2024-03-08T02:17:47;-15930.78;;;1.60;100.00
46095;BME280;31832;50.746;-2.716;2024-03-08T02:20:12;-15940.47;;;1.62;100.00
46095;BME280;31832;50.746;-2.716;2024-03-08T02:22:38;-15945.76;;;1.89;100.00
46095;BME280;31832;50.746;-2.716;2024-03-08T02:25:04;-15934.49;;;1.07;100.00
46095;BME280;31832;50.746;-2.716;2024-03-08T02:27:29;-15927.77;;;1.21;100.00
46095;BME280;31832;50.746;-2.716;2024-03-08T02:29:55;-15955.81;;;1.92;100.00
46095;BME280;31832;50.746;-2.716;2024-03-08T02:32:18;-15952.58;;;1.76;100.00
46095;BME280;31832;50.746;-2.716;2024-03-08T02:34:44;-15945.12;;;1.62;100.00
46095;BME280;31832;50.746;-2.716;2024-03-08T02:37:10;-15958.41;;;2.06;100.00
46095;BME280;31832;50.746;-2.716;2024-03-08T02:39:36;-15950.79;;;1.67;100.00
46095;BME280;31832;50.746;-2.716;2024-03-08T02:42:01;-15938.45;;;1.51;100.00
46095;BME280;31832;50.746;-2.716;2024-03-08T02:44:26;-15946.13;;;1.91;100.00
46095;BME280;31832;50.746;-2.716;2024-03-08T02:46:51;-15951.00;;;1.68;100.00
46095;BME280;31832;50.746;-2.716;2024-03-08T02:49:17;-15957.78;;;2.02;100.00
46095;BME280;31832;50.746;-2.716;2024-03-08T02:51:42;-15946.74;;;1.94;100.00
46095;BME280;31832;50.746;-2.716;2024-03-08T02:54:08;-15935.60;;;1.37;100.00
46095;BME280;31832;50.746;-2.716;2024-03-08T02:56:33;-15934.43;;;1.31;100.00
46095;BME280;31832;50.746;-2.716;2024-03-08T02:58:59;-15934.28;;;1.30;100.00
46095;BME280;31832;50.746;-2.716;2024-03-08T03:01:24;-15944.28;;;1.81;100.00
46095;BME280;31832;50.746;-2.716;2024-03-08T03:03:49;-15943.49;;;1.29;100.00
46095;BME280;31832;50.746;-2.716;2024-03-08T03:06:15;-15922.73;;;0.71;100.00
46095;BME280;31832;50.746;-2.716;2024-03-08T03:08:40;-15958.29;;;2.05;100.00
46095;BME280;31832;50.746;-2.716;2024-03-08T03:11:06;-15936.48;;;1.17;100.00
46095;BME280;31832;50.746;-2.716;2024-03-08T03:13:32;-15918.94;;;0.76;100.00
46095;BME280;31832;50.746;-2.716;2024-03-08T03:15:57;-15939.45;;;1.56;100.00
46095;BME280;31832;50.746;-2.716;2024-03-08T03:18:23;-15934.53;;;1.31;100.00
46095;BME280;31832;50.746;-2.716;2024-03-08T03:20:48;-15926.59;;;1.15;100.00
46095;BME280;31832;50.746;-2.716;2024-03-08T03:23:13;-15955.03;;;2.12;100.00
46095;BME280;31832;50.746;-2.716;2024-03-08T03:25:39;-15961.71;;;2.22;100.00
46095;BME280;31832;50.746;-2.716;2024-03-08T03:28:05;-15933.91;;;0.80;100.00
46095;BME280;31832;50.746;-2.716;2024-03-08T03:30:30;-15915.40;;;0.81;100.00
46095;BME280;31832;50.746;-2.716;2024-03-08T03:32:56;-15929.21;;;1.04;100.00
46095;BME280;31832;50.746;-2.716;2024-03-08T03:35:22;-15951.16;;;1.68;100.00
46095;BME280;31832;50.746;-2.716;2024-03-08T03:37:47;-15947.46;;;1.50;100.00
46095;BME280;31832;50.746;-2.716;2024-03-08T03:40:13;-15969.22;;;2.37;100.00
46095;BME280;31832;50.746;-2.716;2024-03-08T03:42:38;-15987.45;;;3.06;100.00
46095;BME280;31832;50.746;-2.716;2024-03-08T03:45:04;-15998.61;;;3.63;100.00
46095;BME280;31832;50.746;-2.716;2024-03-08T03:47:29;-16012.43;;;3.86;100.00
46095;BME280;31832;50.746;-2.716;2024-03-08T03:49:54;-16011.76;;;4.06;100.00
46095;BME280;31832;50.746;-2.716;2024-03-08T03:52:20;-16029.87;;;4.75;100.00
46095;BME280;31832;50.746;-2.716;2024-03-08T03:54:46;-15993.48;;;3.13;100.00
46095;BME280;31832;50.746;-2.716;2024-03-08T03:57:11;-15940.26;;;1.13;100.00
46095;BME280;31832;50.746;-2.716;2024-03-08T03:59:36;-16000.43;;;3.72;100.00
46095;BME280;31832;50.746;-2.716;2024-03-08T04:02:02;-16001.17;;;3.76;100.00
46095;BME280;31832;50.746;-2.716;2024-03-08T04:04:27;-16013.76;;;4.17;100.00
46095;BME280;31832;50.746;-2.716;2024-03-08T04:09:18;-16019.34;;;4.45;100.00
46095;BME280;31832;50.746;-2.716;2024-03-08T04:11:44;-16003.85;;;3.42;100.00
46095;BME280;31832;50.746;-2.716;2024-03-08T04:14:08;-16028.61;;;4.69;100.00
46095;BME280;31832;50.746;-2.716;2024-03-08T04:16:34;-16003.85;;;3.90;100.00
46095;BME280;31832;50.746;-2.716;2024-03-08T04:19:00;-15966.90;;;1.77;100.00
46095;BME280;31832;50.746;-2.716;2024-03-08T04:21:24;-16013.29;;;3.90;100.00
46095;BME280;31832;50.746;-2.716;2024-03-08T04:23:50;-16011.34;;;3.80;100.00
46095;BME280;31832;50.746;-2.716;2024-03-08T04:26:16;-16040.61;;;5.30;100.00
46095;BME280;31832;50.746;-2.716;2024-03-08T04:28:41;-15966.87;;;2.01;100.00
46095;BME280;31832;50.746;-2.716;2024-03-08T04:31:07;-15980.36;;;2.70;100.00
46095;BME280;31832;50.746;-2.716;2024-03-08T04:33:32;-15984.66;;;2.92;100.00
46095;BME280;31832;50.746;-2.716;2024-03-08T04:35:57;-15966.97;;;2.49;100.00
46095;BME280;31832;50.746;-2.716;2024-03-08T04:38:23;-15983.82;;;2.88;100.00
46095;BME280;31832;50.746;-2.716;2024-03-08T04:40:48;-15971.22;;;2.71;100.00
46095;BME280;31832;50.746;-2.716;2024-03-08T04:43:13;-15975.77;;;2.46;100.00
46095;BME280;31832;50.746;-2.716;2024-03-08T04:45:38;-16011.76;;;3.83;100.00
46095;BME280;31832;50.746;-2.716;2024-03-08T04:48:05;-16049.18;;;5.50;100.00
46095;BME280;31832;50.746;-2.716;2024-03-08T04:50:30;-15997.72;;;3.11;100.00
46095;BME280;31832;50.746;-2.716;2024-03-08T04:52:56;-16046.14;;;5.34;100.00
46095;BME280;31832;50.746;-2.716;2024-03-08T04:55:22;-16023.70;;;4.44;100.00
46095;BME280;31832;50.746;-2.716;2024-03-08T04:57:47;-16049.59;;;5.76;100.00
46095;BME280;31832;50.746;-2.716;2024-03-08T05:00:14;-16036.76;;;5.10;100.00
46095;BME280;31832;50.746;-2.716;2024-03-08T05:02:38;-16050.83;;;5.82;100.00
46095;BME280;31832;50.746;-2.716;2024-03-08T05:05:03;-16026.78;;;4.59;100.00
46095;BME280;31832;50.746;-2.716;2024-03-08T05:07:29;-16029.30;;;4.72;100.00
46095;BME280;31832;50.746;-2.716;2024-03-08T05:09:55;-16015.63;;;4.26;100.00
46095;BME280;31832;50.746;-2.716;2024-03-08T05:12:20;-15983.99;;;2.65;100.00
46095;BME280;31832;50.746;-2.716;2024-03-08T05:14:46;-15962.92;;;1.81;100.00
46095;BME280;31832;50.746;-2.716;2024-03-08T05:17:11;-15995.51;;;3.47;100.00
46095;BME280;31832;50.746;-2.716;2024-03-08T05:19:36;-15997.98;;;3.12;100.00
46095;BME280;31832;50.746;-2.716;2024-03-08T05:22:02;-15997.69;;;3.58;100.00
46095;BME280;31832;50.746;-2.716;2024-03-08T05:24:28;-15972.52;;;2.30;100.00
46095;BME280;31832;50.746;-2.716;2024-03-08T05:26:53;-16002.19;;;3.34;100.00
46095;BME280;31832;50.746;-2.716;2024-03-08T05:29:18;-16014.82;;;3.98;100.00
46095;BME280;31832;50.746;-2.716;2024-03-08T05:31:46;-16002.21;;;3.34;100.00
46095;BME280;31832;50.746;-2.716;2024-03-08T05:34:08;-15966.26;;;1.98;100.00
46095;BME280;31832;50.746;-2.716;2024-03-08T05:36:34;-15980.63;;;2.71;100.00
46095;BME280;31832;50.746;-2.716;2024-03-08T05:38:59;-15936.99;;;0.96;100.00
46095;BME280;31832;50.746;-2.716;2024-03-08T05:41:24;-15919.72;;;0.56;100.00
46095;BME280;31832;50.746;-2.716;2024-03-08T05:43:50;-15937.04;;;1.44;100.00
46095;BME280;31832;50.746;-2.716;2024-03-08T05:46:16;-15954.81;;;1.87;100.00
46095;BME280;31832;50.746;-2.716;2024-03-08T05:48:41;-15935.83;;;0.90;100.00
46095;BME280;31832;50.746;-2.716;2024-03-08T05:51:06;-15934.11;;;1.29;100.00
46095;BME280;31832;50.746;-2.716;2024-03-08T05:53:32;-15953.07;;;1.78;100.00
46095;BME280;31832;50.746;-2.716;2024-03-08T05:55:58;-15944.41;;;1.82;100.00
46095;BME280;31832;50.746;-2.716;2024-03-08T05:58:23;-15965.27;;;2.41;100.00
46095;BME280;31832;50.746;-2.716;2024-03-08T06:00:49;-15938.43;;;1.03;100.00
46095;BME280;31832;50.746;-2.716;2024-03-08T06:03:14;-15942.30;;;1.47;100.00
46095;BME280;31832;50.746;-2.716;2024-03-08T06:05:39;-15916.89;;;0.65;100.00
46095;BME280;31832;50.746;-2.716;2024-03-08T06:08:05;-15927.62;;;0.96;100.00
46095;BME280;31832;50.746;-2.716;2024-03-08T06:10:30;-15907.73;;;0.42;100.00
46095;BME280;31832;50.746;-2.716;2024-03-08T06:12:56;-15915.92;;;0.60;100.00
46095;BME280;31832;50.746;-2.716;2024-03-08T06:15:21;-15923.56;;;0.75;100.00
46095;BME280;31832;50.746;-2.716;2024-03-08T06:17:47;-15940.64;;;1.63;100.00
46095;BME280;31832;50.746;-2.716;2024-03-08T06:20:12;-15913.84;;;0.73;100.00
46095;BME280;31832;50.746;-2.716;2024-03-08T06:22:38;-15911.63;;;0.62;100.00
46095;BME280;31832;50.746;-2.716;2024-03-08T06:25:03;-15910.36;;;0.56;100.00
46095;BME280;31832;50.746;-2.716;2024-03-08T06:27:27;-15908.27;;;0.45;100.00
46095;BME280;31832;50.746;-2.716;2024-03-08T06:29:53;-15912.51;;;0.67;100.00
46095;BME280;31832;50.746;-2.716;2024-03-08T06:32:19;-15918.49;;;0.73;100.00
46095;BME280;31832;50.746;-2.716;2024-03-08T06:34:45;-15920.49;;;0.84;100.00
46095;BME280;31832;50.746;-2.716;2024-03-08T06:37:10;-15916.55;;;0.87;100.00
46095;BME280;31832;50.746;-2.716;2024-03-08T06:39:35;-15913.52;;;0.72;100.00
46095;BME280;31832;50.746;-2.716;2024-03-08T06:42:01;-15908.79;;;0.48;100.00
46095;BME280;31832;50.746;-2.716;2024-03-08T06:44:26;-15920.01;;;0.81;100.00
46095;BME280;31832;50.746;-2.716;2024-03-08T06:46:52;-15922.87;;;0.72;100.00
46095;BME280;31832;50.746;-2.716;2024-03-08T06:49:19;-15921.88;;;1.15;100.00
46095;BME280;31832;50.746;-2.716;2024-03-08T06:51:43;-15918.93;;;0.99;100.00
46095;BME280;31832;50.746;-2.716;2024-03-08T06:54:08;-15933.16;;;1.24;100.00
46095;BME280;31832;50.746;-2.716;2024-03-08T06:56:34;-15911.08;;;0.59;100.00
46095;BME280;31832;50.746;-2.716;2024-03-08T06:58:59;-15917.77;;;0.94;100.00
46095;BME280;31832;50.746;-2.716;2024-03-08T07:01:24;-15915.14;;;0.56;100.00
46095;BME280;31832;50.746;-2.716;2024-03-08T07:03:50;-15912.55;;;0.91;100.00
46095;BME280;31832;50.746;-2.716;2024-03-08T07:06:15;-15913.36;;;0.71;100.00
46095;BME280;31832;50.746;-2.716;2024-03-08T07:08:40;-15907.08;;;0.39;100.00
46095;BME280;31832;50.746;-2.716;2024-03-08T07:11:05;-15914.72;;;0.78;100.00
46095;BME280;31832;50.746;-2.716;2024-03-08T07:13:31;-15935.24;;;1.60;100.00
46095;BME280;31832;50.746;-2.716;2024-03-08T07:15:56;-15919.01;;;1.00;100.00
46095;BME280;31832;50.746;-2.716;2024-03-08T07:18:22;-15915.21;;;0.81;100.00
46095;BME280;31832;50.746;-2.716;2024-03-08T07:20:47;-15905.55;;;0.31;100.00
46095;BME280;31832;50.746;-2.716;2024-03-08T07:23:12;-15926.64;;;1.15;100.00
46095;BME280;31832;50.746;-2.716;2024-03-08T07:25:38;-15929.29;;;1.05;100.00
46095;BME280;31832;50.746;-2.716;2024-03-08T07:28:04;-15921.12;;;1.11;100.00
46095;BME280;31832;50.746;-2.716;2024-03-08T07:30:29;-15921.19;;;0.87;100.00
46095;BME280;31832;50.746;-2.716;2024-03-08T07:32:54;-15911.70;;;0.63;100.00
46095;BME280;31832;50.746;-2.716;2024-03-08T07:35:20;-15914.00;;;0.74;100.00
46095;BME280;31832;50.746;-2.716;2024-03-08T07:37:45;-15919.67;;;0.79;100.00
46095;BME280;31832;50.746;-2.716;2024-03-08T07:40:11;-15927.08;;;0.93;100.00
46095;BME280;31832;50.746;-2.716;2024-03-08T07:42:36;-15906.46;;;0.36;100.00
46095;BME280;31832;50.746;-2.716;2024-03-08T07:45:03;-15909.47;;;0.51;100.00
46095;BME280;31832;50.746;-2.716;2024-03-08T07:47:27;-15914.90;;;0.79;100.00
46095;BME280;31832;50.746;-2.716;2024-03-08T07:49:53;-15903.44;;;0.20;100.00
46095;BME280;31832;50.746;-2.716;2024-03-08T07:52:17;-15917.71;;;0.93;100.00
46095;BME280;31832;50.746;-2.716;2024-03-08T07:54:42;-15902.27;;;0.62;100.00
46095;BME280;31832;50.746;-2.716;2024-03-08T07:57:08;-15914.47;;;0.77;100.00
46095;BME280;31832;50.746;-2.716;2024-03-08T07:59:33;-15916.70;;;0.88;100.00
46095;BME280;31832;50.746;-2.716;2024-03-08T08:01:59;-15911.05;;;0.59;100.00
46095;BME280;31832;50.746;-2.716;2024-03-08T08:04:24;-15903.20;;;0.67;100.00
46095;BME280;31832;50.746;-2.716;2024-03-08T08:06:50;-15909.73;;;0.52;100.00
46095;BME280;31832;50.746;-2.716;2024-03-08T08:09:16;-15909.47;;;0.51;100.00
46095;BME280;31832;50.746;-2.716;2024-03-08T08:11:41;-15923.16;;;1.21;100.00
46095;BME280;31832;50.746;-2.716;2024-03-08T08:14:06;-15908.62;;;0.95;100.00
46095;BME280;31832;50.746;-2.716;2024-03-08T08:16:31;-15894.27;;;0.21;100.00
46095;BME280;31832;50.746;-2.716;2024-03-08T08:18:56;-15912.63;;;0.67;100.00
46095;BME280;31832;50.746;-2.716;2024-03-08T08:21:22;-15927.24;;;1.18;100.00
46095;BME280;31832;50.746;-2.716;2024-03-08T08:23:48;-15916.28;;;0.86;100.00
46095;BME280;31832;50.746;-2.716;2024-03-08T08:26:14;-15922.81;;;0.95;100.00
46095;BME280;31832;50.746;-2.716;2024-03-08T08:28:40;-15936.04;;;1.63;100.00
46095;BME280;31832;50.746;-2.716;2024-03-08T08:31:06;-15925.77;;;1.34;100.00
46095;BME280;31832;50.746;-2.716;2024-03-08T08:33:31;-15922.49;;;1.18;100.00
46095;BME280;31832;50.746;-2.716;2024-03-08T08:35:57;-15924.40;;;1.27;100.00
46095;BME280;31832;50.746;-2.716;2024-03-08T08:38:22;-15930.13;;;1.33;100.00
46095;BME280;31832;50.746;-2.716;2024-03-08T08:40:47;-15938.76;;;1.53;100.00
46095;BME280;31832;50.746;-2.716;2024-03-08T08:43:13;-15941.34;;;1.66;100.00
46095;BME280;31832;50.746;-2.716;2024-03-08T08:45:39;-15935.11;;;1.58;100.00
46095;BME280;31832;50.746;-2.716;2024-03-08T08:48:05;-15915.24;;;1.05;100.00
46095;BME280;31832;50.746;-2.716;2024-03-08T08:50:30;-15905.32;;;0.78;100.00
46095;BME280;31832;50.746;-2.716;2024-03-08T08:52:56;-15919.58;;;0.79;100.00
46095;BME280;31832;50.746;-2.716;2024-03-08T08:55:21;-15938.32;;;1.51;100.00
46095;BME280;31832;50.746;-2.716;2024-03-08T08:57:47;-15938.88;;;1.78;100.00
46095;BME280;31832;50.746;-2.716;2024-03-08T09:00:13;-15948.05;;;2.48;100.00
46095;BME280;31832;50.746;-2.716;2024-03-08T09:02:38;-15935.47;;;1.60;100.00
46095;BME280;31832;50.746;-2.716;2024-03-08T09:05:03;-15947.08;;;1.95;100.00
46095;BME280;31832;50.746;-2.716;2024-03-08T09:07:28;-15933.36;;;1.25;100.00
46095;BME280;31832;50.746;-2.716;2024-03-08T09:09:53;-15937.36;;;1.94;100.00
46095;BME280;31832;50.746;-2.716;2024-03-08T09:12:19;-15917.27;;;0.91;100.00
46095;BME280;31832;50.746;-2.716;2024-03-08T09:14:45;-15929.80;;;1.55;100.00
46095;BME280;31832;50.746;-2.716;2024-03-08T09:17:11;-15917.25;;;1.39;100.00
46095;BME280;31832;50.746;-2.716;2024-03-08T09:19:36;-15941.29;;;2.14;100.00
46095;BME280;31832;50.746;-2.716;2024-03-08T09:22:01;-15928.10;;;1.22;100.00
46095;BME280;31832;50.746;-2.716;2024-03-08T09:24:26;-15942.67;;;1.73;100.00
46095;BME280;31832;50.746;-2.716;2024-03-08T09:26:52;-15928.61;;;1.49;100.00
46095;BME280;31832;50.746;-2.716;2024-03-08T09:29:17;-15928.23;;;1.47;100.00
46095;BME280;31832;50.746;-2.716;2024-03-08T09:31:43;-15929.08;;;1.51;100.00
46095;BME280;31832;50.746;-2.716;2024-03-08T09:34:08;-15925.36;;;1.32;100.00
46095;BME280;31832;50.746;-2.716;2024-03-08T09:36:33;-15935.47;;;1.84;100.00
46095;BME280;31832;50.746;-2.716;2024-03-08T09:38:59;-15924.13;;;1.26;100.00
46095;BME280;31832;50.746;-2.716;2024-03-08T09:41:24;-15941.20;;;2.13;100.00
46095;BME280;31832;50.746;-2.716;2024-03-08T09:43:49;-15950.04;;;2.11;100.00
46095;BME280;31832;50.746;-2.716;2024-03-08T09:46:15;-15953.87;;;2.30;100.00
46095;BME280;31832;50.746;-2.716;2024-03-08T09:48:40;-15946.21;;;2.39;100.00
46095;BME280;31832;50.746;-2.716;2024-03-08T09:51:05;-15944.70;;;2.07;100.00
46095;BME280;31832;50.746;-2.716;2024-03-08T09:53:30;-15951.27;;;2.17;100.00
46095;BME280;31832;50.746;-2.716;2024-03-08T09:55:55;-15960.77;;;2.65;100.00
46095;BME280;31832;50.746;-2.716;2024-03-08T09:58:21;-15984.92;;;3.41;100.00
46095;BME280;31832;50.746;-2.716;2024-03-08T10:00:46;-15950.29;;;2.12;100.00
46095;BME280;31832;50.746;-2.716;2024-03-08T10:03:12;-15960.51;;;2.64;100.00
46095;BME280;31832;50.746;-2.716;2024-03-08T10:05:37;-15964.92;;;2.39;100.00
46095;BME280;31832;50.746;-2.716;2024-03-08T10:08:04;-15968.20;;;2.56;100.00
46095;BME280;31832;50.746;-2.716;2024-03-08T10:10:28;-15984.65;;;3.16;100.00
46095;BME280;31832;50.746;-2.716;2024-03-08T10:12:53;-15991.04;;;3.72;100.00
46095;BME280;31832;50.746;-2.716;2024-03-08T10:15:19;-15990.36;;;3.21;100.00
46095;BME280;31832;50.746;-2.716;2024-03-08T10:17:45;-15967.23;;;2.51;100.00
46095;BME280;31832;50.746;-2.716;2024-03-08T10:20:14;-15959.43;;;2.59;100.00
46095;BME280;31832;50.746;-2.716;2024-03-08T10:22:35;-15969.83;;;3.12;100.00
46095;BME280;31832;50.746;-2.716;2024-03-08T10:25:01;-15968.60;;;3.05;100.00
46095;BME280;31832;50.746;-2.716;2024-03-08T10:27:27;-15986.11;;;3.47;100.00
46095;BME280;31832;50.746;-2.716;2024-03-08T10:29:53;-16001.72;;;4.03;100.00
46095;BME280;31832;50.746;-2.716;2024-03-08T10:32:18;-15978.34;;;3.07;100.00
46095;BME280;31832;50.746;-2.716;2024-03-08T10:34:43;-15963.76;;;3.29;100.00
46095;BME280;31832;50.746;-2.716;2024-03-08T10:37:14;-15969.13;;;3.32;100.00
46095;BME280;31832;50.746;-2.716;2024-03-08T10:39:35;-15990.98;;;3.72;100.00
46095;BME280;31832;50.746;-2.716;2024-03-08T10:42:03;-16019.17;;;4.68;100.00
46095;BME280;31832;50.746;-2.716;2024-03-08T10:44:40;-16045.28;;;5.54;100.00
46095;BME280;31832;50.746;-2.716;2024-03-08T10:47:00;-16025.88;;;4.79;100.00
46095;BME280;31832;50.746;-2.716;2024-03-08T10:49:17;-16009.16;;;4.17;100.00
46095;BME280;31832;50.746;-2.716;2024-03-08T10:51:41;-16012.53;;;4.58;100.00
46095;BME280;31832;50.746;-2.716;2024-03-08T10:54:08;-15993.32;;;3.84;100.00
46095;BME280;31832;50.746;-2.716;2024-03-08T10:56:32;-16007.29;;;4.31;100.00
46095;BME280;31832;50.746;-2.716;2024-03-08T10:58:58;-16007.31;;;4.08;100.00
46095;BME280;31832;50.746;-2.716;2024-03-08T11:01:23;-15999.92;;;3.94;100.00
46095;BME280;31832;50.746;-2.716;2024-03-08T11:03:48;-15996.06;;;4.22;100.00
46095;BME280;31832;50.746;-2.716;2024-03-08T11:06:16;-15998.67;;;4.35;100.00
46095;BME280;31832;50.746;-2.716;2024-03-08T11:08:38;-16025.76;;;5.02;100.00
46095;BME280;31832;50.746;-2.716;2024-03-08T11:11:04;-16022.08;;;4.83;100.00
46095;BME280;31832;50.746;-2.716;2024-03-08T11:13:33;-16011.80;;;4.54;100.00
46095;BME280;31832;50.746;-2.716;2024-03-08T11:15:55;-16039.57;;;5.25;100.00
46095;BME280;31832;50.746;-2.716;2024-03-08T11:18:21;-16042.62;;;5.40;100.00
46095;BME280;31832;50.746;-2.716;2024-03-08T11:20:47;-16011.31;;;4.28;100.00
46095;BME280;31832;50.746;-2.716;2024-03-08T11:23:11;-16027.74;;;5.12;100.00
46095;BME280;31832;50.746;-2.716;2024-03-08T11:25:37;-16028.41;;;5.16;100.00
46095;BME280;31832;50.746;-2.716;2024-03-08T11:28:09;-16038.53;;;5.43;100.00
46095;BME280;31832;50.746;-2.716;2024-03-08T11:30:27;-16009.21;;;4.17;100.00
46095;BME280;31832;50.746;-2.716;2024-03-08T11:32:52;-16019.13;;;4.68;100.00
46095;BME280;31832;50.746;-2.716;2024-03-08T11:35:19;-16038.63;;;5.20;100.00
46095;BME280;31832;50.746;-2.716;2024-03-08T11:37:44;-16029.76;;;5.22;100.00
46095;BME280;31832;50.746;-2.716;2024-03-08T11:40:12;-16020.67;;;4.76;100.00
46095;BME280;31832;50.746;-2.716;2024-03-08T11:42:36;-16018.51;;;4.65;100.00
46095;BME280;31832;50.746;-2.716;2024-03-08T11:44:59;-16025.23;;;4.99;100.00
46095;BME280;31832;50.746;-2.716;2024-03-08T11:47:27;-16045.54;;;5.55;100.00
46095;BME280;31832;50.746;-2.716;2024-03-08T11:49:50;-16064.06;;;6.50;100.00
46095;BME280;31832;50.746;-2.716;2024-03-08T11:52:17;-16035.77;;;5.29;100.00
46095;BME280;31832;50.746;-2.716;2024-03-08T11:54:40;-16064.32;;;6.27;100.00
46095;BME280;31832;50.746;-2.716;2024-03-08T11:57:06;-16036.19;;;5.31;100.00
46095;BME280;31832;50.746;-2.716;2024-03-08T11:59:32;-16022.92;;;5.11;100.00
46095;BME280;31832;50.746;-2.716;2024-03-08T12:02:00;-16032.43;;;5.36;100.00
46095;BME280;31832;50.746;-2.716;2024-03-08T12:04:22;-16038.10;;;5.65;100.00
46095;BME280;31832;50.746;-2.716;2024-03-08T12:06:48;-16044.74;;;5.51;100.00
46095;BME280;31832;50.746;-2.716;2024-03-08T12:09:13;-16036.34;;;5.56;100.00
46095;BME280;31832;50.746;-2.716;2024-03-08T12:11:39;-16018.73;;;4.90;100.00
46095;BME280;31832;50.746;-2.716;2024-03-08T12:14:06;-16038.52;;;5.67;100.00
46095;BME280;31832;50.746;-2.716;2024-03-08T12:16:29;-16040.83;;;5.55;100.00
46095;BME280;31832;50.746;-2.716;2024-03-08T12:18:55;-16052.40;;;5.90;100.00
46095;BME280;31832;50.746;-2.716;2024-03-08T12:21:20;-16051.75;;;5.87;100.00
46095;BME280;31832;50.746;-2.716;2024-03-08T12:23:45;-16057.45;;;5.92;100.00
46095;BME280;31832;50.746;-2.716;2024-03-08T12:26:12;-16028.75;;;5.65;100.00
46095;BME280;31832;50.746;-2.716;2024-03-08T12:28:37;-16025.86;;;5.02;100.00
46095;BME280;31832;50.746;-2.716;2024-03-08T12:31:02;-16023.79;;;5.16;100.00
46095;BME280;31832;50.746;-2.716;2024-03-08T12:33:28;-16028.71;;;5.41;100.00
46095;BME280;31832;50.746;-2.716;2024-03-08T12:35:54;-16034.17;;;5.45;100.00
46095;BME280;31832;50.746;-2.716;2024-03-08T12:38:20;-16021.66;;;4.81;100.00
46095;BME280;31832;50.746;-2.716;2024-03-08T12:40:44;-16044.65;;;5.99;100.00